Decoded Metar for SGES (GUARANY in PARAGUAY) (IATA:N/A) | Meteo·Mobile Aviation Weather
aviador You're here:

SGES Decoded Metar

GUARANY in PARAGUAY
Report Time2018-09-26 05:00:00
UTC Time2018-09-26 05:16:51
Flight Rules vfr VFR
Wind120° at 05 kt
W.Decomp.*RWY 05: 0.4 kt HW 5.0 kt RCW
W.Rank120° ranks 4
Current wind is below 120° avg. (5.4)
Visibility9999 m
Phenomena:N/A
Clouds:Scattered 025 Hf
Broken 070 Hf
Expected CloudBase > 800 ft AGL from Temp-Dew spread
Ceiling7,000 ft
Temp20°C (ISA +11)
Dew Point18°C (88% RH)
QNH1010 hPa
Density Alt4,400 ft
Elevation2,785 ft
Report Wrong Elevation
Raw Report
SGES 260500Z 12005KT 9999 SCT025 BKN070 20/18 Q1010=

Extra information for SGES:More info

Metar Taf Metar & Taf Last 4 Metars F.Rules Stats Wind Profile Meteogram Temp Stats Airport Information Weather charts Add Link Nearby VenuesMetar ALERT Operation Metar Decoded Social comments